sensor_id;sensor_type;location;lat;lon;timestamp;P1;durP1;ratioP1;P2;durP2;ratioP2
65581;SDS011;52231;40.090;18.348;2023-05-07T00:01:07;16.35;;;8.80;;
65581;SDS011;52231;40.090;18.348;2023-05-07T00:03:35;19.65;;;8.48;;
65581;SDS011;52231;40.090;18.348;2023-05-07T00:06:05;15.98;;;7.93;;
65581;SDS011;52231;40.090;18.348;2023-05-07T00:08:33;16.20;;;7.93;;
65581;SDS011;52231;40.090;18.348;2023-05-07T00:11:01;16.05;;;8.32;;
65581;SDS011;52231;40.090;18.348;2023-05-07T00:13:29;16.65;;;7.68;;
65581;SDS011;52231;40.090;18.348;2023-05-07T00:16:02;15.55;;;7.88;;
65581;SDS011;52231;40.090;18.348;2023-05-07T00:18:31;14.05;;;6.70;;
65581;SDS011;52231;40.090;18.348;2023-05-07T00:20:59;16.02;;;7.50;;
65581;SDS011;52231;40.090;18.348;2023-05-07T00:23:27;18.00;;;7.85;;
65581;SDS011;52231;40.090;18.348;2023-05-07T00:25:55;16.77;;;7.95;;
65581;SDS011;52231;40.090;18.348;2023-05-07T00:28:23;15.60;;;7.72;;
65581;SDS011;52231;40.090;18.348;2023-05-07T00:30:52;15.27;;;8.18;;
65581;SDS011;52231;40.090;18.348;2023-05-07T00:35:50;16.90;;;7.55;;
65581;SDS011;52231;40.090;18.348;2023-05-07T00:38:18;17.27;;;8.15;;
65581;SDS011;52231;40.090;18.348;2023-05-07T00:40:46;16.00;;;6.85;;
65581;SDS011;52231;40.090;18.348;2023-05-07T00:43:14;15.13;;;7.22;;
65581;SDS011;52231;40.090;18.348;2023-05-07T00:48:11;14.02;;;7.07;;
65581;SDS011;52231;40.090;18.348;2023-05-07T00:50:41;19.50;;;7.68;;
65581;SDS011;52231;40.090;18.348;2023-05-07T00:53:09;15.30;;;7.68;;
65581;SDS011;52231;40.090;18.348;2023-05-07T00:55:38;16.33;;;7.72;;
65581;SDS011;52231;40.090;18.348;2023-05-07T00:58:06;17.00;;;8.30;;
65581;SDS011;52231;40.090;18.348;2023-05-07T01:00:34;19.98;;;8.98;;
65581;SDS011;52231;40.090;18.348;2023-05-07T01:03:06;17.27;;;8.30;;
65581;SDS011;52231;40.090;18.348;2023-05-07T01:05:35;17.60;;;8.10;;
65581;SDS011;52231;40.090;18.348;2023-05-07T01:08:04;18.38;;;8.98;;
65581;SDS011;52231;40.090;18.348;2023-05-07T01:10:33;18.55;;;8.95;;
65581;SDS011;52231;40.090;18.348;2023-05-07T01:13:01;16.73;;;8.30;;
65581;SDS011;52231;40.090;18.348;2023-05-07T01:15:30;19.63;;;10.20;;
65581;SDS011;52231;40.090;18.348;2023-05-07T01:17:58;17.50;;;8.93;;
65581;SDS011;52231;40.090;18.348;2023-05-07T01:20:31;20.00;;;10.07;;
65581;SDS011;52231;40.090;18.348;2023-05-07T01:23:00;19.15;;;10.13;;
65581;SDS011;52231;40.090;18.348;2023-05-07T01:25:28;20.88;;;10.23;;
65581;SDS011;52231;40.090;18.348;2023-05-07T01:28:00;21.05;;;10.48;;
65581;SDS011;52231;40.090;18.348;2023-05-07T01:30:32;18.02;;;10.20;;
65581;SDS011;52231;40.090;18.348;2023-05-07T01:33:09;20.35;;;10.30;;
65581;SDS011;52231;40.090;18.348;2023-05-07T01:35:43;18.05;;;8.45;;
65581;SDS011;52231;40.090;18.348;2023-05-07T01:38:14;16.55;;;8.73;;
65581;SDS011;52231;40.090;18.348;2023-05-07T01:40:43;17.25;;;9.13;;
65581;SDS011;52231;40.090;18.348;2023-05-07T01:43:12;16.35;;;8.88;;
65581;SDS011;52231;40.090;18.348;2023-05-07T01:45:41;17.55;;;8.77;;
65581;SDS011;52231;40.090;18.348;2023-05-07T01:48:11;14.90;;;7.97;;
65581;SDS011;52231;40.090;18.348;2023-05-07T01:50:42;16.25;;;8.35;;
65581;SDS011;52231;40.090;18.348;2023-05-07T01:53:10;16.23;;;8.02;;
65581;SDS011;52231;40.090;18.348;2023-05-07T01:55:39;15.30;;;7.55;;
65581;SDS011;52231;40.090;18.348;2023-05-07T01:58:08;17.98;;;8.70;;
65581;SDS011;52231;40.090;18.348;2023-05-07T02:00:36;16.17;;;8.35;;
65581;SDS011;52231;40.090;18.348;2023-05-07T02:03:04;14.80;;;7.63;;
65581;SDS011;52231;40.090;18.348;2023-05-07T02:05:50;16.95;;;8.10;;
65581;SDS011;52231;40.090;18.348;2023-05-07T02:08:28;16.02;;;8.15;;
65581;SDS011;52231;40.090;18.348;2023-05-07T02:10:58;16.98;;;7.70;;
65581;SDS011;52231;40.090;18.348;2023-05-07T02:13:28;14.70;;;7.35;;
65581;SDS011;52231;40.090;18.348;2023-05-07T02:15:57;15.90;;;6.70;;
65581;SDS011;52231;40.090;18.348;2023-05-07T02:18:27;14.90;;;7.22;;
65581;SDS011;52231;40.090;18.348;2023-05-07T02:20:55;15.55;;;7.90;;
65581;SDS011;52231;40.090;18.348;2023-05-07T02:23:23;13.50;;;6.88;;
65581;SDS011;52231;40.090;18.348;2023-05-07T02:28:20;18.88;;;8.35;;
65581;SDS011;52231;40.090;18.348;2023-05-07T02:30:53;15.07;;;7.65;;
65581;SDS011;52231;40.090;18.348;2023-05-07T02:33:21;17.80;;;8.45;;
65581;SDS011;52231;40.090;18.348;2023-05-07T02:35:49;15.25;;;8.02;;
65581;SDS011;52231;40.090;18.348;2023-05-07T02:38:19;17.65;;;8.10;;
65581;SDS011;52231;40.090;18.348;2023-05-07T02:40:48;17.40;;;7.70;;
65581;SDS011;52231;40.090;18.348;2023-05-07T02:43:16;16.58;;;7.20;;
65581;SDS011;52231;40.090;18.348;2023-05-07T02:45:47;16.35;;;7.85;;
65581;SDS011;52231;40.090;18.348;2023-05-07T02:48:15;16.55;;;8.15;;
65581;SDS011;52231;40.090;18.348;2023-05-07T02:50:43;16.50;;;7.95;;
65581;SDS011;52231;40.090;18.348;2023-05-07T02:53:13;16.05;;;7.78;;
65581;SDS011;52231;40.090;18.348;2023-05-07T02:55:42;16.95;;;8.05;;
65581;SDS011;52231;40.090;18.348;2023-05-07T02:58:10;17.30;;;8.43;;
65581;SDS011;52231;40.090;18.348;2023-05-07T03:00:40;18.05;;;8.43;;
65581;SDS011;52231;40.090;18.348;2023-05-07T03:03:23;16.38;;;8.13;;
65581;SDS011;52231;40.090;18.348;2023-05-07T03:05:51;19.33;;;8.85;;
65581;SDS011;52231;40.090;18.348;2023-05-07T03:08:19;18.15;;;8.45;;
65581;SDS011;52231;40.090;18.348;2023-05-07T03:10:47;16.77;;;7.72;;
65581;SDS011;52231;40.090;18.348;2023-05-07T03:13:15;14.55;;;7.82;;
65581;SDS011;52231;40.090;18.348;2023-05-07T03:15:44;16.90;;;7.60;;
65581;SDS011;52231;40.090;18.348;2023-05-07T03:18:12;16.58;;;7.82;;
65581;SDS011;52231;40.090;18.348;2023-05-07T03:20:40;14.60;;;7.57;;
65581;SDS011;52231;40.090;18.348;2023-05-07T03:23:08;17.20;;;8.18;;
65581;SDS011;52231;40.090;18.348;2023-05-07T03:25:38;15.90;;;7.78;;
65581;SDS011;52231;40.090;18.348;2023-05-07T03:28:06;16.33;;;7.45;;
65581;SDS011;52231;40.090;18.348;2023-05-07T03:30:43;17.30;;;8.45;;
65581;SDS011;52231;40.090;18.348;2023-05-07T03:33:15;15.93;;;7.90;;
65581;SDS011;52231;40.090;18.348;2023-05-07T03:35:43;14.82;;;7.57;;
65581;SDS011;52231;40.090;18.348;2023-05-07T03:38:14;15.43;;;7.38;;
65581;SDS011;52231;40.090;18.348;2023-05-07T03:40:42;15.27;;;8.05;;
65581;SDS011;52231;40.090;18.348;2023-05-07T03:43:10;15.15;;;7.28;;
65581;SDS011;52231;40.090;18.348;2023-05-07T03:45:43;17.05;;;8.20;;
65581;SDS011;52231;40.090;18.348;2023-05-07T03:48:17;17.17;;;8.52;;
65581;SDS011;52231;40.090;18.348;2023-05-07T03:50:45;17.63;;;6.90;;
65581;SDS011;52231;40.090;18.348;2023-05-07T03:53:16;18.88;;;9.18;;
65581;SDS011;52231;40.090;18.348;2023-05-07T03:55:45;19.27;;;8.73;;
65581;SDS011;52231;40.090;18.348;2023-05-07T03:58:13;18.95;;;8.50;;
65581;SDS011;52231;40.090;18.348;2023-05-07T04:00:42;14.38;;;7.68;;
65581;SDS011;52231;40.090;18.348;2023-05-07T04:03:26;14.35;;;7.20;;
65581;SDS011;52231;40.090;18.348;2023-05-07T04:05:57;17.35;;;7.57;;
65581;SDS011;52231;40.090;18.348;2023-05-07T04:08:25;18.95;;;8.73;;
65581;SDS011;52231;40.090;18.348;2023-05-07T04:10:55;19.80;;;9.85;;
65581;SDS011;52231;40.090;18.348;2023-05-07T04:13:26;22.67;;;9.10;;
65581;SDS011;52231;40.090;18.348;2023-05-07T04:15:55;16.67;;;8.48;;
65581;SDS011;52231;40.090;18.348;2023-05-07T04:18:26;18.95;;;8.63;;
65581;SDS011;52231;40.090;18.348;2023-05-07T04:20:57;16.05;;;8.20;;
65581;SDS011;52231;40.090;18.348;2023-05-07T04:23:25;15.75;;;7.63;;
65581;SDS011;52231;40.090;18.348;2023-05-07T04:25:54;15.73;;;7.32;;
65581;SDS011;52231;40.090;18.348;2023-05-07T04:28:30;16.30;;;8.35;;
65581;SDS011;52231;40.090;18.348;2023-05-07T04:30:58;17.92;;;7.53;;
65581;SDS011;52231;40.090;18.348;2023-05-07T04:33:28;15.55;;;8.38;;
65581;SDS011;52231;40.090;18.348;2023-05-07T04:35:58;15.38;;;7.85;;
65581;SDS011;52231;40.090;18.348;2023-05-07T04:38:33;14.48;;;7.60;;
65581;SDS011;52231;40.090;18.348;2023-05-07T04:41:03;14.02;;;7.90;;
65581;SDS011;52231;40.090;18.348;2023-05-07T04:43:36;13.77;;;7.38;;
65581;SDS011;52231;40.090;18.348;2023-05-07T04:46:04;15.20;;;7.30;;
65581;SDS011;52231;40.090;18.348;2023-05-07T04:48:32;15.57;;;7.90;;
65581;SDS011;52231;40.090;18.348;2023-05-07T04:51:02;14.40;;;7.47;;
65581;SDS011;52231;40.090;18.348;2023-05-07T04:53:31;17.88;;;7.72;;
65581;SDS011;52231;40.090;18.348;2023-05-07T04:55:59;14.35;;;7.57;;
65581;SDS011;52231;40.090;18.348;2023-05-07T05:01:02;13.95;;;6.72;;
65581;SDS011;52231;40.090;18.348;2023-05-07T05:03:32;15.25;;;7.45;;
65581;SDS011;52231;40.090;18.348;2023-05-07T05:06:00;14.77;;;7.45;;
65581;SDS011;52231;40.090;18.348;2023-05-07T05:08:32;14.15;;;7.43;;
65581;SDS011;52231;40.090;18.348;2023-05-07T05:11:02;14.38;;;7.15;;
65581;SDS011;52231;40.090;18.348;2023-05-07T05:13:33;15.60;;;7.35;;
65581;SDS011;52231;40.090;18.348;2023-05-07T05:16:08;12.80;;;6.18;;
65581;SDS011;52231;40.090;18.348;2023-05-07T05:18:37;14.63;;;7.18;;
65581;SDS011;52231;40.090;18.348;2023-05-07T05:21:05;13.27;;;6.60;;
65581;SDS011;52231;40.090;18.348;2023-05-07T05:23:34;12.15;;;6.47;;
65581;SDS011;52231;40.090;18.348;2023-05-07T05:26:02;14.35;;;7.45;;
65581;SDS011;52231;40.090;18.348;2023-05-07T05:28:32;13.73;;;6.88;;
65581;SDS011;52231;40.090;18.348;2023-05-07T05:31:02;14.15;;;6.43;;
65581;SDS011;52231;40.090;18.348;2023-05-07T05:33:34;13.88;;;6.78;;
65581;SDS011;52231;40.090;18.348;2023-05-07T05:36:04;13.65;;;6.60;;
65581;SDS011;52231;40.090;18.348;2023-05-07T05:38:33;11.77;;;5.53;;
65581;SDS011;52231;40.090;18.348;2023-05-07T05:41:02;12.63;;;5.55;;
65581;SDS011;52231;40.090;18.348;2023-05-07T05:43:30;13.38;;;6.38;;
65581;SDS011;52231;40.090;18.348;2023-05-07T05:45:59;10.52;;;5.68;;
65581;SDS011;52231;40.090;18.348;2023-05-07T05:48:30;11.80;;;5.60;;
65581;SDS011;52231;40.090;18.348;2023-05-07T05:51:01;10.55;;;5.68;;
65581;SDS011;52231;40.090;18.348;2023-05-07T05:55:58;11.63;;;5.40;;
65581;SDS011;52231;40.090;18.348;2023-05-07T05:58:26;23.08;;;8.63;;
65581;SDS011;52231;40.090;18.348;2023-05-07T06:00:59;24.48;;;9.90;;
65581;SDS011;52231;40.090;18.348;2023-05-07T06:03:30;24.10;;;10.40;;
65581;SDS011;52231;40.090;18.348;2023-05-07T06:06:03;31.75;;;12.77;;
65581;SDS011;52231;40.090;18.348;2023-05-07T06:08:32;28.13;;;10.48;;
65581;SDS011;52231;40.090;18.348;2023-05-07T06:11:01;24.77;;;10.27;;
65581;SDS011;52231;40.090;18.348;2023-05-07T06:13:33;19.58;;;8.80;;
65581;SDS011;52231;40.090;18.348;2023-05-07T06:16:01;18.98;;;7.57;;
65581;SDS011;52231;40.090;18.348;2023-05-07T06:20:57;20.27;;;7.07;;
65581;SDS011;52231;40.090;18.348;2023-05-07T06:23:30;18.35;;;7.03;;
65581;SDS011;52231;40.090;18.348;2023-05-07T06:25:59;17.45;;;6.60;;
65581;SDS011;52231;40.090;18.348;2023-05-07T06:28:32;15.27;;;6.32;;
65581;SDS011;52231;40.090;18.348;2023-05-07T06:31:14;12.50;;;4.50;;
65581;SDS011;52231;40.090;18.348;2023-05-07T06:33:54;9.32;;;4.03;;
65581;SDS011;52231;40.090;18.348;2023-05-07T06:36:28;11.32;;;4.30;;
65581;SDS011;52231;40.090;18.348;2023-05-07T06:38:58;7.85;;;3.50;;
65581;SDS011;52231;40.090;18.348;2023-05-07T06:41:27;6.55;;;3.13;;
65581;SDS011;52231;40.090;18.348;2023-05-07T06:44:00;7.50;;;3.35;;
65581;SDS011;52231;40.090;18.348;2023-05-07T06:46:38;7.95;;;3.60;;
65581;SDS011;52231;40.090;18.348;2023-05-07T06:49:09;8.95;;;3.80;;
65581;SDS011;52231;40.090;18.348;2023-05-07T06:51:37;10.50;;;4.40;;
65581;SDS011;52231;40.090;18.348;2023-05-07T06:54:06;9.90;;;4.05;;
65581;SDS011;52231;40.090;18.348;2023-05-07T06:56:38;12.20;;;4.40;;
65581;SDS011;52231;40.090;18.348;2023-05-07T06:59:09;6.07;;;2.67;;
65581;SDS011;52231;40.090;18.348;2023-05-07T07:01:39;5.13;;;2.33;;
65581;SDS011;52231;40.090;18.348;2023-05-07T07:04:10;6.55;;;2.70;;
65581;SDS011;52231;40.090;18.348;2023-05-07T07:06:40;5.22;;;2.92;;
65581;SDS011;52231;40.090;18.348;2023-05-07T07:09:12;5.85;;;2.85;;
65581;SDS011;52231;40.090;18.348;2023-05-07T07:11:41;5.50;;;2.72;;
65581;SDS011;52231;40.090;18.348;2023-05-07T07:14:09;5.45;;;2.55;;
65581;SDS011;52231;40.090;18.348;2023-05-07T07:16:45;5.47;;;2.40;;
65581;SDS011;52231;40.090;18.348;2023-05-07T07:19:16;8.40;;;3.60;;
65581;SDS011;52231;40.090;18.348;2023-05-07T07:21:47;7.47;;;3.38;;
65581;SDS011;52231;40.090;18.348;2023-05-07T07:24:16;6.15;;;3.22;;
65581;SDS011;52231;40.090;18.348;2023-05-07T07:26:51;6.78;;;3.00;;
65581;SDS011;52231;40.090;18.348;2023-05-07T07:29:21;5.85;;;2.80;;
65581;SDS011;52231;40.090;18.348;2023-05-07T07:31:49;4.40;;;2.60;;
65581;SDS011;52231;40.090;18.348;2023-05-07T07:34:19;7.13;;;3.15;;
65581;SDS011;52231;40.090;18.348;2023-05-07T07:36:48;6.38;;;2.90;;
65581;SDS011;52231;40.090;18.348;2023-05-07T07:39:18;7.72;;;3.55;;
65581;SDS011;52231;40.090;18.348;2023-05-07T07:41:49;5.78;;;2.83;;
65581;SDS011;52231;40.090;18.348;2023-05-07T07:44:21;6.65;;;3.13;;
65581;SDS011;52231;40.090;18.348;2023-05-07T07:46:57;6.75;;;2.78;;
65581;SDS011;52231;40.090;18.348;2023-05-07T07:49:26;9.57;;;4.70;;
65581;SDS011;52231;40.090;18.348;2023-05-07T07:51:56;6.68;;;3.03;;
65581;SDS011;52231;40.090;18.348;2023-05-07T07:54:27;6.10;;;2.92;;
65581;SDS011;52231;40.090;18.348;2023-05-07T07:56:57;7.68;;;3.83;;
65581;SDS011;52231;40.090;18.348;2023-05-07T07:59:26;7.25;;;3.50;;
65581;SDS011;52231;40.090;18.348;2023-05-07T08:01:55;6.60;;;3.15;;
65581;SDS011;52231;40.090;18.348;2023-05-07T08:04:26;6.68;;;3.30;;
65581;SDS011;52231;40.090;18.348;2023-05-07T08:06:56;5.47;;;3.10;;
65581;SDS011;52231;40.090;18.348;2023-05-07T08:09:25;5.18;;;2.67;;
65581;SDS011;52231;40.090;18.348;2023-05-07T08:12:02;5.78;;;2.90;;
65581;SDS011;52231;40.090;18.348;2023-05-07T08:14:33;6.97;;;2.92;;
65581;SDS011;52231;40.090;18.348;2023-05-07T08:17:03;5.43;;;3.00;;
65581;SDS011;52231;40.090;18.348;2023-05-07T08:19:32;5.55;;;2.92;;
65581;SDS011;52231;40.090;18.348;2023-05-07T08:22:00;6.35;;;3.13;;
65581;SDS011;52231;40.090;18.348;2023-05-07T08:24:30;6.90;;;3.20;;
65581;SDS011;52231;40.090;18.348;2023-05-07T08:26:58;7.80;;;3.30;;
65581;SDS011;52231;40.090;18.348;2023-05-07T08:29:27;8.38;;;3.90;;
65581;SDS011;52231;40.090;18.348;2023-05-07T08:31:55;7.03;;;3.42;;
65581;SDS011;52231;40.090;18.348;2023-05-07T08:34:23;6.88;;;3.60;;
65581;SDS011;52231;40.090;18.348;2023-05-07T08:36:54;11.13;;;4.03;;
65581;SDS011;52231;40.090;18.348;2023-05-07T08:39:24;10.93;;;4.40;;
65581;SDS011;52231;40.090;18.348;2023-05-07T08:41:55;8.77;;;3.63;;
65581;SDS011;52231;40.090;18.348;2023-05-07T08:44:26;7.22;;;3.30;;
65581;SDS011;52231;40.090;18.348;2023-05-07T08:46:57;6.28;;;2.95;;
65581;SDS011;52231;40.090;18.348;2023-05-07T08:49:28;7.63;;;3.35;;
65581;SDS011;52231;40.090;18.348;2023-05-07T08:51:56;5.55;;;2.88;;
65581;SDS011;52231;40.090;18.348;2023-05-07T08:54:25;5.30;;;3.08;;
65581;SDS011;52231;40.090;18.348;2023-05-07T08:56:55;5.78;;;3.20;;
65581;SDS011;52231;40.090;18.348;2023-05-07T08:59:25;6.40;;;2.75;;
65581;SDS011;52231;40.090;18.348;2023-05-07T09:02:01;5.03;;;2.83;;
65581;SDS011;52231;40.090;18.348;2023-05-07T09:04:29;6.38;;;2.97;;
65581;SDS011;52231;40.090;18.348;2023-05-07T09:06:59;7.72;;;3.67;;
65581;SDS011;52231;40.090;18.348;2023-05-07T09:09:37;8.43;;;3.30;;
65581;SDS011;52231;40.090;18.348;2023-05-07T09:12:06;8.05;;;3.40;;
65581;SDS011;52231;40.090;18.348;2023-05-07T09:14:36;6.47;;;3.35;;
65581;SDS011;52231;40.090;18.348;2023-05-07T09:17:04;7.57;;;3.60;;
65581;SDS011;52231;40.090;18.348;2023-05-07T09:19:33;5.93;;;3.25;;
65581;SDS011;52231;40.090;18.348;2023-05-07T09:22:06;9.00;;;3.10;;
65581;SDS011;52231;40.090;18.348;2023-05-07T09:24:50;6.30;;;3.42;;
65581;SDS011;52231;40.090;18.348;2023-05-07T09:27:22;7.57;;;3.40;;
65581;SDS011;52231;40.090;18.348;2023-05-07T09:29:50;6.68;;;3.05;;
65581;SDS011;52231;40.090;18.348;2023-05-07T09:32:19;5.93;;;3.15;;
65581;SDS011;52231;40.090;18.348;2023-05-07T09:34:48;6.05;;;3.10;;
65581;SDS011;52231;40.090;18.348;2023-05-07T09:37:22;7.97;;;3.10;;
65581;SDS011;52231;40.090;18.348;2023-05-07T09:39:50;6.85;;;3.17;;
65581;SDS011;52231;40.090;18.348;2023-05-07T09:42:22;6.05;;;3.00;;
65581;SDS011;52231;40.090;18.348;2023-05-07T09:44:57;5.93;;;3.17;;
65581;SDS011;52231;40.090;18.348;2023-05-07T09:47:32;6.32;;;2.95;;
65581;SDS011;52231;40.090;18.348;2023-05-07T09:50:05;5.50;;;2.80;;
65581;SDS011;52231;40.090;18.348;2023-05-07T09:52:36;6.53;;;3.17;;
65581;SDS011;52231;40.090;18.348;2023-05-07T09:55:08;6.80;;;3.15;;
65581;SDS011;52231;40.090;18.348;2023-05-07T09:57:37;5.78;;;3.20;;
65581;SDS011;52231;40.090;18.348;2023-05-07T10:00:08;7.30;;;3.30;;
65581;SDS011;52231;40.090;18.348;2023-05-07T10:02:48;6.32;;;3.05;;
65581;SDS011;52231;40.090;18.348;2023-05-07T10:05:25;5.85;;;2.95;;
65581;SDS011;52231;40.090;18.348;2023-05-07T10:07:57;5.95;;;3.20;;
65581;SDS011;52231;40.090;18.348;2023-05-07T10:10:27;5.97;;;3.20;;
65581;SDS011;52231;40.090;18.348;2023-05-07T10:12:57;8.15;;;3.30;;
65581;SDS011;52231;40.090;18.348;2023-05-07T10:15:34;6.68;;;3.15;;
65581;SDS011;52231;40.090;18.348;2023-05-07T10:18:04;5.55;;;3.10;;
65581;SDS011;52231;40.090;18.348;2023-05-07T10:20:36;7.68;;;3.50;;
65581;SDS011;52231;40.090;18.348;2023-05-07T10:23:08;6.85;;;3.30;;
65581;SDS011;52231;40.090;18.348;2023-05-07T10:25:43;8.50;;;3.60;;
65581;SDS011;52231;40.090;18.348;2023-05-07T10:28:18;8.18;;;3.60;;
65581;SDS011;52231;40.090;18.348;2023-05-07T10:33:23;7.85;;;3.60;;
65581;SDS011;52231;40.090;18.348;2023-05-07T10:35:57;9.35;;;3.97;;
65581;SDS011;52231;40.090;18.348;2023-05-07T10:38:29;10.85;;;4.03;;
65581;SDS011;52231;40.090;18.348;2023-05-07T10:41:00;7.47;;;3.42;;
65581;SDS011;52231;40.090;18.348;2023-05-07T10:43:44;6.65;;;3.58;;
65581;SDS011;52231;40.090;18.348;2023-05-07T10:46:21;6.95;;;3.30;;
65581;SDS011;52231;40.090;18.348;2023-05-07T10:49:10;9.60;;;4.13;;
65581;SDS011;52231;40.090;18.348;2023-05-07T10:51:47;11.57;;;4.65;;
65581;SDS011;52231;40.090;18.348;2023-05-07T10:54:40;8.15;;;3.45;;
65581;SDS011;52231;40.090;18.348;2023-05-07T11:05:36;6.72;;;3.70;;
65581;SDS011;52231;40.090;18.348;2023-05-07T11:08:20;6.63;;;3.60;;
65581;SDS011;52231;40.090;18.348;2023-05-07T11:11:03;7.63;;;3.75;;
65581;SDS011;52231;40.090;18.348;2023-05-07T11:13:51;6.88;;;3.53;;
65581;SDS011;52231;40.090;18.348;2023-05-07T11:16:42;7.65;;;3.80;;
65581;SDS011;52231;40.090;18.348;2023-05-07T11:19:47;9.63;;;4.00;;
65581;SDS011;52231;40.090;18.348;2023-05-07T11:22:40;6.65;;;3.55;;
65581;SDS011;52231;40.090;18.348;2023-05-07T11:25:29;7.53;;;3.45;;
65581;SDS011;52231;40.090;18.348;2023-05-07T11:28:10;6.88;;;2.97;;
65581;SDS011;52231;40.090;18.348;2023-05-07T11:30:45;5.57;;;3.10;;
65581;SDS011;52231;40.090;18.348;2023-05-07T11:33:17;6.20;;;3.10;;
65581;SDS011;52231;40.090;18.348;2023-05-07T11:35:48;9.00;;;3.50;;
65581;SDS011;52231;40.090;18.348;2023-05-07T11:38:20;6.85;;;3.10;;
65581;SDS011;52231;40.090;18.348;2023-05-07T11:40:49;6.78;;;3.00;;
65581;SDS011;52231;40.090;18.348;2023-05-07T11:43:22;6.57;;;3.17;;
65581;SDS011;52231;40.090;18.348;2023-05-07T11:46:05;6.47;;;3.40;;
65581;SDS011;52231;40.090;18.348;2023-05-07T11:48:35;7.43;;;3.20;;
65581;SDS011;52231;40.090;18.348;2023-05-07T11:51:05;6.15;;;3.10;;
65581;SDS011;52231;40.090;18.348;2023-05-07T11:53:39;7.95;;;3.17;;
65581;SDS011;52231;40.090;18.348;2023-05-07T11:56:11;6.75;;;3.15;;
65581;SDS011;52231;40.090;18.348;2023-05-07T11:58:41;6.30;;;3.22;;
65581;SDS011;52231;40.090;18.348;2023-05-07T12:01:10;6.13;;;3.28;;
65581;SDS011;52231;40.090;18.348;2023-05-07T12:03:40;4.97;;;2.85;;
65581;SDS011;52231;40.090;18.348;2023-05-07T12:06:10;7.05;;;3.20;;
65581;SDS011;52231;40.090;18.348;2023-05-07T12:08:40;5.75;;;2.97;;
65581;SDS011;52231;40.090;18.348;2023-05-07T12:11:11;7.35;;;3.10;;
65581;SDS011;52231;40.090;18.348;2023-05-07T12:13:45;6.80;;;3.38;;
65581;SDS011;52231;40.090;18.348;2023-05-07T12:16:14;5.78;;;2.97;;
65581;SDS011;52231;40.090;18.348;2023-05-07T12:18:42;5.80;;;3.05;;
65581;SDS011;52231;40.090;18.348;2023-05-07T12:21:11;5.45;;;2.80;;
65581;SDS011;52231;40.090;18.348;2023-05-07T12:23:40;5.80;;;2.70;;
65581;SDS011;52231;40.090;18.348;2023-05-07T12:26:08;5.65;;;3.00;;
65581;SDS011;52231;40.090;18.348;2023-05-07T12:28:38;7.13;;;3.35;;
65581;SDS011;52231;40.090;18.348;2023-05-07T12:31:07;6.03;;;2.88;;
65581;SDS011;52231;40.090;18.348;2023-05-07T12:33:35;5.68;;;2.90;;
65581;SDS011;52231;40.090;18.348;2023-05-07T12:36:05;4.68;;;2.60;;
65581;SDS011;52231;40.090;18.348;2023-05-07T12:38:37;4.95;;;2.85;;
65581;SDS011;52231;40.090;18.348;2023-05-07T12:41:08;5.07;;;2.90;;
65581;SDS011;52231;40.090;18.348;2023-05-07T12:43:38;7.95;;;3.10;;
65581;SDS011;52231;40.090;18.348;2023-05-07T12:46:07;5.60;;;3.00;;
65581;SDS011;52231;40.090;18.348;2023-05-07T12:48:37;5.43;;;3.00;;
65581;SDS011;52231;40.090;18.348;2023-05-07T12:51:10;7.40;;;3.38;;
65581;SDS011;52231;40.090;18.348;2023-05-07T12:53:41;7.07;;;3.28;;
65581;SDS011;52231;40.090;18.348;2023-05-07T12:56:10;6.78;;;3.47;;
65581;SDS011;52231;40.090;18.348;2023-05-07T12:58:38;7.93;;;3.33;;
65581;SDS011;52231;40.090;18.348;2023-05-07T13:01:06;6.50;;;3.30;;
65581;SDS011;52231;40.090;18.348;2023-05-07T13:03:37;6.90;;;3.10;;
65581;SDS011;52231;40.090;18.348;2023-05-07T13:06:07;6.13;;;3.30;;
65581;SDS011;52231;40.090;18.348;2023-05-07T13:08:42;6.35;;;3.38;;
65581;SDS011;52231;40.090;18.348;2023-05-07T13:11:11;6.55;;;3.25;;
65581;SDS011;52231;40.090;18.348;2023-05-07T13:13:40;7.70;;;3.40;;
65581;SDS011;52231;40.090;18.348;2023-05-07T13:16:09;6.10;;;3.25;;
65581;SDS011;52231;40.090;18.348;2023-05-07T13:18:39;6.95;;;3.45;;
65581;SDS011;52231;40.090;18.348;2023-05-07T13:21:08;6.22;;;3.35;;
65581;SDS011;52231;40.090;18.348;2023-05-07T13:23:37;5.80;;;3.22;;
65581;SDS011;52231;40.090;18.348;2023-05-07T13:26:06;8.57;;;3.63;;
65581;SDS011;52231;40.090;18.348;2023-05-07T13:28:41;8.10;;;3.80;;
65581;SDS011;52231;40.090;18.348;2023-05-07T13:31:10;7.18;;;3.55;;
65581;SDS011;52231;40.090;18.348;2023-05-07T13:33:38;6.78;;;3.30;;
65581;SDS011;52231;40.090;18.348;2023-05-07T13:36:07;7.55;;;3.85;;
65581;SDS011;52231;40.090;18.348;2023-05-07T13:38:35;7.88;;;3.67;;
65581;SDS011;52231;40.090;18.348;2023-05-07T13:41:03;6.55;;;3.35;;
65581;SDS011;52231;40.090;18.348;2023-05-07T13:43:31;6.47;;;3.22;;
65581;SDS011;52231;40.090;18.348;2023-05-07T13:46:01;7.40;;;3.10;;
65581;SDS011;52231;40.090;18.348;2023-05-07T13:48:29;5.65;;;3.25;;
65581;SDS011;52231;40.090;18.348;2023-05-07T13:50:57;6.90;;;3.40;;
65581;SDS011;52231;40.090;18.348;2023-05-07T13:53:25;6.80;;;3.75;;
65581;SDS011;52231;40.090;18.348;2023-05-07T13:55:54;8.43;;;3.78;;
65581;SDS011;52231;40.090;18.348;2023-05-07T13:58:22;5.95;;;3.30;;
65581;SDS011;52231;40.090;18.348;2023-05-07T14:00:50;6.43;;;3.40;;
65581;SDS011;52231;40.090;18.348;2023-05-07T14:03:18;6.90;;;3.50;;
65581;SDS011;52231;40.090;18.348;2023-05-07T14:05:47;6.88;;;3.78;;
65581;SDS011;52231;40.090;18.348;2023-05-07T14:08:16;7.85;;;3.47;;
65581;SDS011;52231;40.090;18.348;2023-05-07T14:10:47;6.97;;;3.20;;
65581;SDS011;52231;40.090;18.348;2023-05-07T14:13:15;7.43;;;3.75;;
65581;SDS011;52231;40.090;18.348;2023-05-07T14:15:44;7.78;;;3.95;;
65581;SDS011;52231;40.090;18.348;2023-05-07T14:18:16;7.40;;;3.72;;
65581;SDS011;52231;40.090;18.348;2023-05-07T14:20:45;8.75;;;4.05;;
65581;SDS011;52231;40.090;18.348;2023-05-07T14:23:14;7.78;;;3.45;;
65581;SDS011;52231;40.090;18.348;2023-05-07T14:25:45;7.20;;;3.72;;
65581;SDS011;52231;40.090;18.348;2023-05-07T14:28:14;8.68;;;3.63;;
65581;SDS011;52231;40.090;18.348;2023-05-07T14:30:43;6.95;;;3.72;;
65581;SDS011;52231;40.090;18.348;2023-05-07T14:33:12;6.65;;;3.33;;
65581;SDS011;52231;40.090;18.348;2023-05-07T14:35:40;9.43;;;4.00;;
65581;SDS011;52231;40.090;18.348;2023-05-07T14:38:08;8.27;;;3.97;;
65581;SDS011;52231;40.090;18.348;2023-05-07T14:40:36;8.48;;;4.10;;
65581;SDS011;52231;40.090;18.348;2023-05-07T14:43:05;9.48;;;3.95;;
65581;SDS011;52231;40.090;18.348;2023-05-07T14:45:33;7.57;;;3.95;;
65581;SDS011;52231;40.090;18.348;2023-05-07T14:48:01;7.93;;;3.75;;
65581;SDS011;52231;40.090;18.348;2023-05-07T14:50:29;7.15;;;3.95;;
65581;SDS011;52231;40.090;18.348;2023-05-07T14:52:58;9.98;;;3.95;;
65581;SDS011;52231;40.090;18.348;2023-05-07T14:55:26;7.72;;;3.80;;
65581;SDS011;52231;40.090;18.348;2023-05-07T14:57:55;9.00;;;3.92;;
65581;SDS011;52231;40.090;18.348;2023-05-07T15:00:24;10.02;;;4.72;;
65581;SDS011;52231;40.090;18.348;2023-05-07T15:02:52;9.20;;;4.10;;
65581;SDS011;52231;40.090;18.348;2023-05-07T15:05:22;8.25;;;4.00;;
65581;SDS011;52231;40.090;18.348;2023-05-07T15:07:50;9.68;;;4.10;;
65581;SDS011;52231;40.090;18.348;2023-05-07T15:10:18;9.23;;;4.10;;
65581;SDS011;52231;40.090;18.348;2023-05-07T15:15:14;7.57;;;3.92;;
65581;SDS011;52231;40.090;18.348;2023-05-07T15:17:42;8.55;;;4.00;;